createdAt,value
2023-03-12T00:01:01.461Z,57.60
2023-03-12T00:03:03.182Z,57.60
2023-03-12T00:05:05.212Z,57.50
2023-03-12T00:07:08.740Z,57.50
2023-03-12T00:09:10.380Z,57.60
2023-03-12T00:11:16.796Z,57.50
2023-03-12T00:13:18.436Z,57.50
2023-03-12T00:15:20.124Z,57.60
2023-03-12T00:17:21.844Z,57.60
2023-03-12T00:19:23.482Z,57.50
2023-03-12T00:21:25.187Z,57.50
2023-03-12T00:23:27.110Z,57.60
2023-03-12T00:25:28.854Z,57.70
2023-03-12T00:27:30.650Z,57.70
2023-03-12T00:29:32.360Z,57.70
2023-03-12T00:31:34.061Z,57.70
2023-03-12T00:33:35.776Z,57.90
2023-03-12T00:35:38.169Z,57.80
2023-03-12T00:37:39.940Z,57.70
2023-03-12T00:39:41.621Z,57.60
2023-03-12T00:41:43.421Z,57.70
2023-03-12T00:43:45.079Z,57.70
2023-03-12T00:45:46.839Z,57.50
2023-03-12T00:47:48.446Z,57.60
2023-03-12T00:49:50.143Z,57.70
2023-03-12T00:51:51.824Z,57.60
2023-03-12T00:53:53.671Z,57.60
2023-03-12T00:55:55.315Z,57.80
2023-03-12T00:57:56.920Z,58.00
2023-03-12T00:59:58.615Z,58.00
2023-03-12T01:02:00.624Z,58.10
2023-03-12T01:04:02.488Z,58.20
2023-03-12T01:06:04.428Z,58.20
2023-03-12T01:08:09.066Z,58.20
2023-03-12T01:10:11.863Z,58.00
2023-03-12T01:12:13.560Z,58.10
2023-03-12T01:14:15.196Z,58.00
2023-03-12T01:16:16.973Z,57.90
2023-03-12T01:18:18.619Z,57.90
2023-03-12T01:20:20.549Z,58.00
2023-03-12T01:22:22.166Z,58.20
2023-03-12T01:24:23.893Z,58.40
2023-03-12T01:26:25.629Z,58.20
2023-03-12T01:28:27.339Z,58.30
2023-03-12T01:30:29.575Z,58.20
2023-03-12T01:32:31.286Z,58.10
2023-03-12T01:34:35.371Z,58.00
2023-03-12T01:36:37.041Z,58.00
2023-03-12T01:38:38.752Z,58.20
2023-03-12T01:40:40.857Z,58.30
2023-03-12T01:42:42.571Z,58.20
2023-03-12T01:44:51.688Z,58.30
2023-03-12T01:46:53.420Z,58.50
2023-03-12T01:48:58.416Z,58.60
2023-03-12T01:51:01.592Z,58.60
2023-03-12T01:53:03.250Z,58.60
2023-03-12T01:55:06.817Z,58.60
2023-03-12T01:57:20.107Z,58.50
2023-03-12T01:59:24.713Z,58.70
2023-03-12T02:01:27.438Z,58.80
2023-03-12T02:03:30.191Z,58.60
2023-03-12T02:05:45.387Z,58.60
2023-03-12T02:07:47.262Z,58.90
2023-03-12T02:09:49.476Z,59.10
2023-03-12T02:11:51.228Z,59.10
2023-03-12T02:13:54.437Z,58.90
2023-03-12T02:15:56.369Z,59.00
2023-03-12T02:17:58.062Z,58.90
2023-03-12T02:19:59.664Z,58.80
2023-03-12T02:22:01.660Z,58.80
2023-03-12T02:24:12.233Z,58.60
2023-03-12T02:26:15.003Z,58.60
2023-03-12T02:28:18.426Z,58.60
2023-03-12T02:30:20.173Z,58.60
2023-03-12T02:32:24.327Z,58.60
2023-03-12T02:34:26.075Z,58.60
2023-03-12T02:36:28.000Z,58.40
2023-03-12T02:38:34.700Z,58.40
2023-03-12T02:40:42.072Z,58.50
2023-03-12T02:42:45.527Z,58.60
2023-03-12T02:44:47.269Z,58.60
2023-03-12T02:46:51.103Z,58.60
2023-03-12T02:48:53.562Z,58.60
2023-03-12T02:50:55.281Z,58.70
2023-03-12T02:52:56.921Z,58.60
2023-03-12T02:54:58.766Z,58.60
2023-03-12T02:57:00.482Z,58.70
2023-03-12T02:59:04.607Z,58.80
2023-03-12T03:01:09.009Z,59.00
2023-03-12T03:03:10.765Z,59.00
2023-03-12T03:05:12.482Z,58.90
2023-03-12T03:07:14.827Z,58.80
2023-03-12T03:09:16.756Z,58.70
2023-03-12T03:11:18.801Z,59.00
2023-03-12T03:13:20.571Z,59.10
2023-03-12T03:15:22.360Z,59.10
2023-03-12T03:17:24.445Z,59.00
2023-03-12T03:19:26.411Z,59.00
2023-03-12T03:21:28.069Z,58.90
2023-03-12T03:23:29.781Z,59.00
2023-03-12T03:25:32.959Z,59.00
2023-03-12T03:27:35.225Z,58.90
2023-03-12T03:29:37.003Z,59.00
2023-03-12T03:31:38.679Z,59.10
2023-03-12T03:33:40.569Z,59.10
2023-03-12T03:35:43.340Z,59.10
2023-03-12T03:37:45.376Z,59.10
2023-03-12T03:39:47.235Z,59.00
2023-03-12T03:41:48.918Z,58.80
2023-03-12T03:43:56.254Z,58.70
2023-03-12T03:46:02.496Z,58.80
2023-03-12T03:48:06.455Z,58.90
2023-03-12T03:50:08.741Z,59.00
2023-03-12T03:52:10.623Z,59.10
2023-03-12T03:54:12.447Z,59.00
2023-03-12T03:56:15.663Z,59.00
2023-03-12T03:58:21.918Z,58.90
2023-03-12T04:00:23.643Z,58.80
2023-03-12T04:02:27.325Z,58.80
2023-03-12T04:04:29.234Z,58.80
2023-03-12T04:06:31.015Z,58.70
2023-03-12T04:08:35.380Z,58.50
2023-03-12T04:10:37.927Z,58.50
2023-03-12T04:12:39.697Z,58.40
2023-03-12T04:14:42.051Z,58.50
2023-03-12T04:16:44.626Z,58.80
2023-03-12T04:18:46.694Z,58.70
2023-03-12T04:20:50.222Z,58.70
2023-03-12T04:22:51.975Z,58.80
2023-03-12T04:24:53.638Z,58.90
2023-03-12T04:26:55.476Z,59.60
2023-03-12T04:28:57.176Z,58.90
2023-03-12T04:31:00.238Z,59.10
2023-03-12T04:33:05.712Z,59.10
2023-03-12T04:35:07.610Z,59.00
2023-03-12T04:37:11.316Z,59.10
2023-03-12T04:39:13.302Z,59.10
2023-03-12T04:41:15.893Z,59.00
2023-03-12T04:43:38.056Z,59.00
2023-03-12T04:45:39.844Z,59.00
2023-03-12T04:47:41.728Z,58.90
2023-03-12T04:49:44.475Z,59.00
2023-03-12T04:51:46.094Z,58.90
2023-03-12T04:53:48.086Z,58.90
2023-03-12T04:55:51.094Z,58.80
2023-03-12T04:57:53.201Z,58.80
2023-03-12T04:59:55.020Z,58.80
2023-03-12T05:01:56.765Z,58.80
2023-03-12T05:04:02.894Z,58.80
2023-03-12T05:06:04.760Z,58.70
2023-03-12T05:08:06.508Z,58.70
2023-03-12T05:10:10.107Z,58.60
2023-03-12T05:12:11.911Z,58.60
2023-03-12T05:14:13.767Z,58.60
2023-03-12T05:16:17.364Z,58.70
2023-03-12T05:18:21.346Z,58.60
2023-03-12T05:20:23.211Z,58.70
2023-03-12T05:22:24.972Z,58.70
2023-03-12T05:24:27.389Z,58.80
2023-03-12T05:26:31.595Z,58.70
2023-03-12T05:28:44.933Z,58.70
2023-03-12T05:30:47.267Z,58.60
2023-03-12T05:32:49.228Z,58.70
2023-03-12T05:34:51.152Z,58.70
2023-03-12T05:36:52.990Z,58.70
2023-03-12T05:38:58.209Z,59.50
2023-03-12T05:41:02.149Z,58.80
2023-03-12T05:43:06.569Z,58.80
2023-03-12T05:45:09.027Z,58.80
2023-03-12T05:47:12.400Z,58.90
2023-03-12T05:49:15.805Z,58.90
2023-03-12T05:51:17.487Z,59.20
2023-03-12T05:53:19.250Z,59.20
2023-03-12T05:55:21.882Z,59.10
2023-03-12T05:57:23.623Z,59.00
2023-03-12T05:59:25.296Z,59.00
2023-03-12T06:01:29.160Z,59.10
2023-03-12T06:03:33.219Z,59.10
2023-03-12T06:05:35.609Z,59.20
2023-03-12T06:07:37.750Z,59.30
2023-03-12T06:09:39.703Z,59.40
2023-03-12T06:11:41.401Z,59.40
2023-03-12T06:13:43.219Z,59.40
2023-03-12T06:15:45.046Z,59.40
2023-03-12T06:17:46.819Z,59.40
2023-03-12T06:19:50.859Z,59.40
2023-03-12T06:21:53.099Z,59.60
2023-03-12T06:23:55.198Z,59.70
2023-03-12T06:26:01.783Z,59.80
2023-03-12T06:28:03.990Z,59.90
2023-03-12T06:30:05.854Z,59.90
2023-03-12T06:32:07.764Z,59.90
2023-03-12T06:34:10.278Z,60.00
2023-03-12T06:36:12.097Z,60.00
2023-03-12T06:38:13.849Z,60.00
2023-03-12T06:40:15.559Z,60.20
2023-03-12T06:42:18.414Z,60.40
2023-03-12T06:44:20.057Z,60.50
2023-03-12T06:46:21.882Z,60.70
2023-03-12T06:48:24.233Z,60.80
2023-03-12T06:50:25.898Z,61.00
2023-03-12T06:52:27.590Z,60.90
2023-03-12T06:54:29.308Z,60.80
2023-03-12T06:56:31.229Z,60.80
2023-03-12T06:58:32.926Z,60.80
2023-03-12T07:00:35.025Z,60.70
2023-03-12T07:02:36.960Z,60.70
2023-03-12T07:04:38.703Z,60.60
2023-03-12T07:06:40.428Z,60.60
2023-03-12T07:08:42.953Z,60.60
2023-03-12T07:10:45.041Z,60.60
2023-03-12T07:12:46.669Z,60.70
2023-03-12T07:14:48.329Z,60.70
2023-03-12T07:16:50.074Z,60.60
2023-03-12T07:18:52.235Z,60.70
2023-03-12T07:20:53.935Z,60.80
2023-03-12T07:22:55.571Z,60.80
2023-03-12T07:24:57.196Z,60.90
2023-03-12T07:26:58.820Z,60.80
2023-03-12T07:29:00.557Z,60.80
2023-03-12T07:31:02.993Z,61.00
2023-03-12T07:33:05.691Z,61.30
2023-03-12T07:35:07.481Z,61.10
2023-03-12T07:37:09.125Z,61.20
2023-03-12T07:39:10.853Z,61.20
2023-03-12T07:41:12.662Z,61.20
2023-03-12T07:43:15.495Z,61.10
2023-03-12T07:45:18.545Z,61.20
2023-03-12T07:47:24.173Z,61.50
2023-03-12T07:49:27.572Z,62.30
2023-03-12T07:51:29.339Z,61.50
2023-03-12T07:53:31.025Z,61.60
2023-03-12T07:55:33.577Z,61.60
2023-03-12T07:57:35.319Z,61.50
2023-03-12T07:59:37.081Z,61.60
2023-03-12T08:01:38.830Z,61.60
2023-03-12T08:03:40.622Z,61.50
2023-03-12T08:05:42.860Z,61.70
2023-03-12T08:07:45.234Z,61.70
2023-03-12T08:09:49.520Z,61.70
2023-03-12T08:11:51.605Z,61.70
2023-03-12T08:13:53.317Z,61.80
2023-03-12T08:15:55.182Z,61.80
2023-03-12T08:17:56.823Z,61.90
2023-03-12T08:19:58.513Z,62.10
2023-03-12T08:22:00.160Z,62.10
2023-03-12T08:24:01.887Z,61.80
2023-03-12T08:26:03.545Z,61.80
2023-03-12T08:28:05.401Z,61.90
2023-03-12T08:30:07.470Z,61.80
2023-03-12T08:32:10.688Z,61.80
2023-03-12T08:34:13.103Z,61.80
2023-03-12T08:36:14.765Z,61.80
2023-03-12T08:38:16.522Z,61.90
2023-03-12T08:40:18.760Z,62.00
2023-03-12T08:42:20.438Z,62.00
2023-03-12T08:44:22.792Z,61.90
2023-03-12T08:46:24.565Z,61.90
2023-03-12T08:48:26.718Z,62.00
2023-03-12T08:50:30.882Z,62.10
2023-03-12T08:52:32.578Z,62.10
2023-03-12T08:54:34.308Z,62.10
2023-03-12T08:56:38.618Z,62.10
2023-03-12T08:58:40.434Z,62.20
2023-03-12T09:00:42.077Z,62.10
2023-03-12T09:02:44.790Z,62.20
2023-03-12T09:04:49.953Z,62.30
2023-03-12T09:06:51.653Z,62.30
2023-03-12T09:08:53.448Z,63.00
2023-03-12T09:10:55.280Z,63.00
2023-03-12T09:12:56.929Z,63.60
2023-03-12T09:15:03.459Z,63.30
2023-03-12T09:17:06.022Z,63.30
2023-03-12T09:19:07.738Z,62.90
2023-03-12T09:21:09.417Z,62.70
2023-03-12T09:23:11.153Z,62.60
2023-03-12T09:25:13.075Z,62.60
2023-03-12T09:27:14.876Z,62.70
2023-03-12T09:29:16.496Z,62.70
2023-03-12T09:31:18.173Z,62.80
2023-03-12T09:33:20.053Z,62.70
2023-03-12T09:35:21.763Z,62.90
2023-03-12T09:37:24.411Z,62.70
2023-03-12T09:39:26.293Z,62.70
2023-03-12T09:41:32.545Z,62.70
2023-03-12T09:43:37.750Z,62.70
2023-03-12T09:45:42.609Z,62.70
2023-03-12T09:47:48.875Z,62.50
2023-03-12T09:49:54.196Z,62.50
2023-03-12T09:51:58.186Z,62.60
2023-03-12T09:54:03.016Z,62.60
2023-03-12T09:56:10.083Z,62.50
2023-03-12T09:58:32.360Z,62.30
2023-03-12T10:00:35.125Z,62.50
2023-03-12T10:02:48.292Z,62.60
2023-03-12T10:04:59.848Z,62.60
2023-03-12T10:07:05.490Z,62.80
2023-03-12T10:09:07.208Z,62.80
2023-03-12T10:11:18.440Z,62.90
2023-03-12T10:13:43.258Z,62.80
2023-03-12T10:16:03.303Z,62.70
2023-03-12T10:18:23.908Z,62.80
2023-03-12T10:20:25.734Z,62.70
2023-03-12T10:22:33.515Z,62.50
2023-03-12T10:24:35.699Z,62.70
2023-03-12T10:26:42.840Z,62.80
2023-03-12T10:29:11.655Z,62.80
2023-03-12T10:31:20.098Z,62.80
2023-03-12T10:33:23.104Z,62.80
2023-03-12T10:35:26.135Z,62.70
2023-03-12T10:37:43.187Z,62.80
2023-03-12T10:39:45.794Z,62.80
2023-03-12T10:41:48.391Z,62.80
2023-03-12T10:43:50.094Z,62.80
2023-03-12T10:45:57.885Z,62.80
2023-03-12T10:48:02.060Z,63.00
2023-03-12T10:50:12.105Z,63.00
2023-03-12T10:52:17.270Z,63.00
2023-03-12T10:54:38.350Z,63.20
2023-03-12T10:56:48.665Z,63.50
2023-03-12T10:58:51.520Z,63.70
2023-03-12T11:00:57.239Z,63.50
2023-03-12T11:02:58.883Z,63.70
2023-03-12T11:05:01.262Z,63.70
2023-03-12T11:07:04.386Z,64.30
2023-03-12T11:09:21.103Z,64.30
2023-03-12T11:11:30.611Z,64.30
2023-03-12T11:13:39.706Z,64.40
2023-03-12T11:15:42.933Z,64.70
2023-03-12T11:17:44.758Z,64.50
2023-03-12T11:19:46.528Z,64.70
2023-03-12T11:21:56.869Z,64.60
2023-03-12T11:23:58.869Z,64.40
2023-03-12T11:26:01.866Z,64.20
2023-03-12T11:28:07.240Z,64.20
2023-03-12T11:30:12.462Z,64.00
2023-03-12T11:32:18.780Z,64.40
2023-03-12T11:34:28.911Z,64.30
2023-03-12T11:36:45.229Z,64.30
2023-03-12T11:39:13.296Z,64.80
2023-03-12T11:41:14.992Z,64.50
2023-03-12T11:43:41.570Z,64.70
2023-03-12T11:46:02.444Z,65.20
2023-03-12T11:48:10.779Z,65.20
2023-03-12T11:50:24.574Z,64.80
2023-03-12T11:52:32.558Z,64.90
2023-03-12T11:54:40.204Z,65.60
2023-03-12T11:56:42.125Z,65.10
2023-03-12T11:58:53.940Z,65.20
2023-03-12T12:00:55.536Z,65.70
2023-03-12T12:02:57.416Z,65.90
2023-03-12T12:05:08.274Z,65.70
2023-03-12T12:07:10.029Z,65.80
2023-03-12T12:09:21.221Z,66.00
2023-03-12T12:11:29.061Z,66.10
2023-03-12T12:13:46.273Z,67.20
2023-03-12T12:15:48.967Z,66.40
2023-03-12T12:18:01.534Z,66.20
2023-03-12T12:20:10.204Z,65.80
2023-03-12T12:22:18.213Z,66.20
2023-03-12T12:24:45.562Z,66.60
2023-03-12T12:26:53.496Z,66.70
2023-03-12T12:29:05.418Z,66.60
2023-03-12T12:31:19.180Z,66.50
2023-03-12T12:33:32.943Z,66.10
2023-03-12T12:35:36.976Z,66.20
2023-03-12T12:37:41.186Z,65.90
2023-03-12T12:39:47.117Z,66.10
2023-03-12T12:41:53.670Z,66.30
2023-03-12T12:44:00.638Z,66.60
2023-03-12T12:46:04.482Z,66.50
2023-03-12T12:48:15.485Z,66.50
2023-03-12T12:50:19.811Z,66.60
2023-03-12T12:52:21.987Z,66.90
2023-03-12T12:54:26.544Z,66.50
2023-03-12T12:56:41.481Z,66.40
2023-03-12T12:58:45.943Z,66.30
2023-03-12T13:00:49.614Z,66.10
2023-03-12T13:02:52.382Z,66.00
2023-03-12T13:04:58.169Z,66.30
2023-03-12T13:07:00.058Z,66.30
2023-03-12T13:09:13.070Z,66.30
2023-03-12T13:11:18.649Z,66.00
2023-03-12T13:13:23.554Z,65.80
2023-03-12T13:15:31.520Z,65.50
2023-03-12T13:17:34.334Z,65.80
2023-03-12T13:19:43.221Z,65.60
2023-03-12T13:21:58.919Z,65.60
2023-03-12T13:24:00.774Z,66.00
2023-03-12T13:26:11.390Z,65.80
2023-03-12T13:28:32.323Z,65.80
2023-03-12T13:30:34.019Z,66.10
2023-03-12T13:32:37.284Z,66.20
2023-03-12T13:34:45.586Z,66.10
2023-03-12T13:36:50.327Z,66.20
2023-03-12T13:38:52.785Z,66.20
2023-03-12T13:40:55.828Z,66.30
2023-03-12T13:43:11.843Z,66.40
2023-03-12T13:45:24.972Z,66.70
2023-03-12T13:47:28.622Z,66.70
2023-03-12T13:49:45.495Z,66.70
2023-03-12T13:51:54.458Z,66.60
2023-03-12T13:53:58.795Z,66.60
2023-03-12T13:56:05.373Z,66.70
2023-03-12T13:58:26.983Z,66.80
2023-03-12T14:00:36.277Z,66.70
2023-03-12T14:02:42.110Z,66.80
2023-03-12T14:04:44.207Z,66.60
2023-03-12T14:07:04.778Z,66.40
2023-03-12T14:09:13.362Z,66.40
2023-03-12T14:11:17.868Z,66.80
2023-03-12T14:13:25.810Z,67.20
2023-03-12T14:15:30.712Z,67.10
2023-03-12T14:17:33.501Z,67.10
2023-03-12T14:19:35.891Z,66.90
2023-03-12T14:21:40.059Z,66.80
2023-03-12T14:23:52.970Z,66.70
2023-03-12T14:25:57.463Z,66.40
2023-03-12T14:27:59.846Z,66.50
2023-03-12T14:30:11.582Z,66.10
2023-03-12T14:32:19.260Z,66.00
2023-03-12T14:34:22.332Z,65.80
2023-03-12T14:36:26.645Z,66.00
2023-03-12T14:38:51.574Z,65.70
2023-03-12T14:41:01.024Z,65.50
2023-03-12T14:43:02.861Z,65.20
2023-03-12T14:45:07.380Z,65.20
2023-03-12T14:47:11.217Z,65.10
2023-03-12T14:49:20.120Z,65.10
2023-03-12T14:51:26.355Z,65.30
2023-03-12T14:53:30.301Z,65.30
2023-03-12T14:55:31.996Z,65.30
2023-03-12T14:57:35.963Z,65.60
2023-03-12T14:59:39.084Z,65.60
2023-03-12T15:01:40.922Z,65.70
2023-03-12T15:03:51.750Z,65.60
2023-03-12T15:05:53.829Z,65.80
2023-03-12T15:07:58.845Z,65.80
2023-03-12T15:10:02.590Z,65.80
2023-03-12T15:12:06.100Z,66.00
2023-03-12T15:14:09.636Z,65.90
2023-03-12T15:16:11.408Z,65.80
2023-03-12T15:18:18.487Z,65.40
2023-03-12T15:20:21.076Z,65.60
2023-03-12T15:22:24.738Z,65.70
2023-03-12T15:24:26.724Z,64.90
2023-03-12T15:26:30.000Z,65.20
2023-03-12T15:28:31.855Z,64.60
2023-03-12T15:30:34.259Z,64.70
2023-03-12T15:32:36.093Z,64.50
2023-03-12T15:34:38.914Z,64.40
2023-03-12T15:36:46.255Z,64.10
2023-03-12T15:38:56.878Z,64.10
2023-03-12T15:41:01.018Z,64.00
2023-03-12T15:43:05.779Z,64.10
2023-03-12T15:45:17.814Z,64.30
2023-03-12T15:47:27.849Z,63.90
2023-03-12T15:49:30.789Z,64.20
2023-03-12T15:51:36.533Z,64.70
2023-03-12T15:53:38.350Z,64.00
2023-03-12T15:55:41.806Z,63.90
2023-03-12T15:57:48.012Z,63.80
2023-03-12T15:59:55.626Z,64.10
2023-03-12T16:01:58.640Z,64.30
2023-03-12T16:04:01.195Z,64.40
2023-03-12T16:06:03.032Z,64.30
2023-03-12T16:08:22.614Z,64.30
2023-03-12T16:10:25.300Z,64.70
2023-03-12T16:12:27.068Z,64.80
2023-03-12T16:14:34.475Z,63.90
2023-03-12T16:16:36.216Z,64.00
2023-03-12T16:18:38.087Z,64.40
2023-03-12T16:20:39.962Z,63.90
2023-03-12T16:22:41.805Z,64.00
2023-03-12T16:24:43.669Z,63.90
2023-03-12T16:26:56.911Z,64.00
2023-03-12T16:28:59.100Z,64.10
2023-03-12T16:31:00.861Z,64.10
2023-03-12T16:33:06.402Z,64.00
2023-03-12T16:35:14.850Z,63.90
2023-03-12T16:37:16.717Z,64.00
2023-03-12T16:39:19.053Z,64.10
2023-03-12T16:41:21.017Z,64.10
2023-03-12T16:43:29.136Z,63.90
2023-03-12T16:45:32.163Z,63.80
2023-03-12T16:47:33.946Z,63.70
2023-03-12T16:49:35.701Z,63.60
2023-03-12T16:51:37.468Z,63.60
2023-03-12T16:53:39.224Z,63.50
2023-03-12T16:55:49.762Z,63.60
2023-03-12T16:57:53.006Z,63.30
2023-03-12T16:59:54.819Z,63.30
2023-03-12T17:01:56.639Z,63.20
2023-03-12T17:03:58.850Z,63.20
2023-03-12T17:06:00.705Z,63.10
2023-03-12T17:08:02.804Z,63.30
2023-03-12T17:10:05.399Z,63.00
2023-03-12T17:12:11.983Z,63.10
2023-03-12T17:14:21.991Z,63.00
2023-03-12T17:16:30.504Z,63.00
2023-03-12T17:18:32.951Z,63.10
2023-03-12T17:20:36.108Z,63.00
2023-03-12T17:22:37.917Z,63.10
2023-03-12T17:24:39.835Z,63.10
2023-03-12T17:26:42.584Z,63.00
2023-03-12T17:28:44.442Z,62.80
2023-03-12T17:30:47.458Z,62.80
2023-03-12T17:32:49.999Z,62.80
2023-03-12T17:34:56.452Z,63.00
2023-03-12T17:36:59.212Z,63.20
2023-03-12T17:39:01.054Z,62.90
2023-03-12T17:41:04.703Z,62.90
2023-03-12T17:43:06.603Z,62.90
2023-03-12T17:45:09.130Z,62.90
2023-03-12T17:47:10.950Z,62.90
2023-03-12T17:49:12.782Z,63.10
2023-03-12T17:51:14.633Z,63.20
2023-03-12T17:53:16.767Z,63.20
2023-03-12T17:55:18.656Z,63.40
2023-03-12T17:57:20.423Z,63.40
2023-03-12T17:59:22.276Z,63.40
2023-03-12T18:01:24.255Z,63.50
2023-03-12T18:03:26.293Z,63.50
2023-03-12T18:05:28.094Z,63.40
2023-03-12T18:07:29.898Z,63.50
2023-03-12T18:09:31.695Z,63.50
2023-03-12T18:11:33.512Z,63.40
2023-03-12T18:13:35.487Z,63.30
2023-03-12T18:15:37.617Z,63.30
2023-03-12T18:17:40.016Z,63.30
2023-03-12T18:19:41.886Z,63.30
2023-03-12T18:21:43.636Z,63.30
2023-03-12T18:23:46.106Z,63.50
2023-03-12T18:25:47.950Z,63.30
2023-03-12T18:27:49.881Z,63.20
2023-03-12T18:29:51.659Z,63.40
2023-03-12T18:31:53.577Z,63.50
2023-03-12T18:33:55.343Z,63.50
2023-03-12T18:35:57.291Z,63.50
2023-03-12T18:37:59.461Z,63.60
2023-03-12T18:40:01.271Z,63.70
2023-03-12T18:42:10.454Z,63.70
2023-03-12T18:44:16.219Z,63.70
2023-03-12T18:46:24.151Z,63.70
2023-03-12T18:48:25.990Z,63.90
2023-03-12T18:50:28.001Z,64.00
2023-03-12T18:52:29.745Z,63.90
2023-03-12T18:54:33.588Z,64.20
2023-03-12T18:56:39.993Z,64.10
2023-03-12T18:58:42.178Z,64.00
2023-03-12T19:00:44.218Z,63.80
2023-03-12T19:02:48.063Z,63.80
2023-03-12T19:04:55.519Z,63.90
2023-03-12T19:07:00.216Z,64.00
2023-03-12T19:09:02.155Z,64.00
2023-03-12T19:11:05.021Z,64.00
2023-03-12T19:13:06.991Z,64.00
2023-03-12T19:15:09.004Z,64.00
2023-03-12T19:17:10.881Z,63.90
2023-03-12T19:19:12.759Z,64.00
2023-03-12T19:21:17.138Z,64.10
2023-03-12T19:23:23.160Z,63.90
2023-03-12T19:25:25.862Z,64.10
2023-03-12T19:27:29.481Z,64.00
2023-03-12T19:29:31.406Z,64.10
2023-03-12T19:31:33.219Z,64.10
2023-03-12T19:33:35.439Z,64.20
2023-03-12T19:35:37.824Z,64.00
2023-03-12T19:37:39.657Z,64.20
2023-03-12T19:39:41.489Z,64.10
2023-03-12T19:41:43.428Z,64.00
2023-03-12T19:43:45.239Z,64.00
2023-03-12T19:45:47.588Z,64.10
2023-03-12T19:47:50.153Z,64.10
2023-03-12T19:49:51.968Z,64.10
2023-03-12T19:51:53.758Z,64.30
2023-03-12T19:53:55.651Z,64.30
2023-03-12T19:55:57.419Z,64.60
2023-03-12T19:57:59.273Z,64.50
2023-03-12T20:00:01.134Z,64.40
2023-03-12T20:02:03.100Z,64.40
2023-03-12T20:04:07.926Z,64.60
2023-03-12T20:06:10.384Z,64.40
2023-03-12T20:08:12.331Z,64.60
2023-03-12T20:10:14.546Z,64.70
2023-03-12T20:12:16.303Z,64.60
2023-03-12T20:14:18.103Z,64.70
2023-03-12T20:16:20.828Z,64.70
2023-03-12T20:18:22.615Z,64.70
2023-03-12T20:20:24.900Z,64.80
2023-03-12T20:22:26.733Z,64.80
2023-03-12T20:24:28.752Z,64.80
2023-03-12T20:26:30.616Z,64.90
2023-03-12T20:28:32.524Z,64.80
2023-03-12T20:30:37.580Z,64.80
2023-03-12T20:32:39.536Z,64.80
2023-03-12T20:34:41.336Z,64.80
2023-03-12T20:36:43.151Z,64.80
2023-03-12T20:38:47.667Z,64.80
2023-03-12T20:40:49.460Z,65.00
2023-03-12T20:42:51.265Z,65.10
2023-03-12T20:44:53.080Z,65.10
2023-03-12T20:46:54.861Z,65.10
2023-03-12T20:48:56.875Z,65.00
2023-03-12T20:50:58.796Z,65.10
2023-03-12T20:53:00.656Z,65.00
2023-03-12T20:55:02.689Z,65.00
2023-03-12T20:57:04.607Z,65.10
2023-03-12T20:59:06.397Z,65.00
2023-03-12T21:01:08.373Z,65.10
2023-03-12T21:03:12.611Z,65.20
2023-03-12T21:05:14.720Z,65.20
2023-03-12T21:07:16.504Z,65.10
2023-03-12T21:09:18.482Z,65.10
2023-03-12T21:11:20.371Z,65.10
2023-03-12T21:13:23.012Z,65.10
2023-03-12T21:15:24.850Z,65.00
2023-03-12T21:17:26.584Z,65.00
2023-03-12T21:19:31.269Z,65.00
2023-03-12T21:21:35.241Z,65.00
2023-03-12T21:23:37.920Z,64.90
2023-03-12T21:25:40.593Z,64.80
2023-03-12T21:27:50.378Z,64.70
2023-03-12T21:29:53.740Z,64.70
2023-03-12T21:31:55.626Z,64.50
2023-03-12T21:33:57.994Z,64.50
2023-03-12T21:35:59.782Z,64.20
2023-03-12T21:38:02.593Z,65.10
2023-03-12T21:40:04.984Z,64.40
2023-03-12T21:42:06.686Z,64.50
2023-03-12T21:44:08.421Z,64.40
2023-03-12T21:46:12.215Z,64.40
2023-03-12T21:48:14.061Z,64.30
2023-03-12T21:50:15.944Z,64.30
2023-03-12T21:52:17.765Z,64.20
2023-03-12T21:54:19.553Z,64.20
2023-03-12T21:56:21.342Z,64.10
2023-03-12T21:58:23.141Z,64.10
2023-03-12T22:00:24.903Z,64.20
2023-03-12T22:02:31.178Z,64.40
2023-03-12T22:04:33.087Z,64.20
2023-03-12T22:06:34.809Z,64.20
2023-03-12T22:08:37.176Z,64.20
2023-03-12T22:10:38.865Z,64.20
2023-03-12T22:12:40.718Z,64.00
2023-03-12T22:14:42.416Z,63.90
2023-03-12T22:16:44.130Z,64.00
2023-03-12T22:18:46.350Z,63.90
2023-03-12T22:21:07.723Z,63.90
2023-03-12T22:23:09.535Z,63.90
2023-03-12T22:25:11.244Z,63.90
2023-03-12T22:27:12.990Z,63.90
2023-03-12T22:29:14.666Z,64.70
2023-03-12T22:31:16.698Z,63.70
2023-03-12T22:33:18.439Z,63.70
2023-03-12T22:35:25.629Z,63.70
2023-03-12T22:37:27.268Z,63.50
2023-03-12T22:39:28.935Z,63.70
2023-03-12T22:41:30.634Z,63.60
2023-03-12T22:43:32.269Z,63.50
2023-03-12T22:45:34.191Z,63.50
2023-03-12T22:47:35.823Z,63.60
2023-03-12T22:49:37.501Z,63.50
2023-03-12T22:51:39.297Z,63.40
2023-03-12T22:53:40.921Z,63.30
2023-03-12T22:55:42.542Z,63.30
2023-03-12T22:57:44.202Z,63.30
2023-03-12T22:59:46.728Z,63.40
2023-03-12T23:01:48.442Z,63.40
2023-03-12T23:03:50.469Z,63.40
2023-03-12T23:05:52.140Z,63.50
2023-03-12T23:07:53.779Z,63.40
2023-03-12T23:09:55.399Z,63.40
2023-03-12T23:11:57.100Z,63.30
2023-03-12T23:13:58.800Z,63.30
2023-03-12T23:16:01.405Z,63.20
2023-03-12T23:18:03.208Z,63.20
2023-03-12T23:20:05.324Z,63.20
2023-03-12T23:22:06.966Z,63.10
2023-03-12T23:24:09.443Z,63.10
2023-03-12T23:26:18.325Z,63.10
2023-03-12T23:28:19.991Z,63.10
2023-03-12T23:30:21.646Z,63.10
2023-03-12T23:32:23.547Z,63.10
2023-03-12T23:34:25.566Z,63.00
2023-03-12T23:36:27.240Z,63.20
2023-03-12T23:38:29.486Z,63.10
2023-03-12T23:40:31.140Z,63.10
2023-03-12T23:42:33.292Z,63.00
2023-03-12T23:44:35.052Z,62.90
2023-03-12T23:46:36.754Z,63.00
2023-03-12T23:48:39.138Z,63.00
2023-03-12T23:50:41.192Z,63.00
2023-03-12T23:52:42.877Z,62.90
2023-03-12T23:54:44.575Z,62.90
2023-03-12T23:56:46.259Z,62.90
2023-03-12T23:58:48.433Z,62.80
